sensor_id;sensor_type;location;lat;lon;timestamp;P1;P2;P0
45312;PMS7003;68267;51.540;5.854;2024-01-15T00:04:13;27.85;28.57;24.1
45312;PMS7003;68267;51.540;5.854;2024-01-15T00:17:33;29.17;29.77;25.19
45312;PMS7003;68267;51.540;5.854;2024-01-15T00:30:52;30.61;30.86;26.5
45312;PMS7003;68267;51.540;5.854;2024-01-15T00:44:12;34.34;34.45;27.7
45312;PMS7003;68267;51.540;5.854;2024-01-15T00:57:32;34.82;34.45;28.79
45312;PMS7003;68267;51.540;5.854;2024-01-15T01:10:51;32.77;32.49;26.17
45312;PMS7003;68267;51.540;5.854;2024-01-15T01:24:11;28.93;28.46;23.44
45312;PMS7003;68267;51.540;5.854;2024-01-15T01:37:31;25.21;26.17;21.05
45312;PMS7003;68267;51.540;5.854;2024-01-15T01:50:50;20.05;21.48;16.8
45312;PMS7003;68267;51.540;5.854;2024-01-15T02:04:10;11.65;13.85;11.67
45312;PMS7003;68267;51.540;5.854;2024-01-15T02:17:30;7.69;10.26;8.08
45312;PMS7003;68267;51.540;5.854;2024-01-15T02:30:49;7.81;7.31;6.11
45312;PMS7003;68267;51.540;5.854;2024-01-15T02:44:09;5.29;5.57;4.48
45312;PMS7003;68267;51.540;5.854;2024-01-15T02:57:29;2.04;5.13;4.15
45312;PMS7003;68267;51.540;5.854;2024-01-15T03:10:48;5.77;4.59;3.61
45312;PMS7003;68267;51.540;5.854;2024-01-15T03:24:08;9.13;3.82;2.84
45312;PMS7003;68267;51.540;5.854;2024-01-15T03:37:28;1.2;4.37;2.84
45312;PMS7003;68267;51.540;5.854;2024-01-15T03:50:47;5.05;4.48;3.17
45312;PMS7003;68267;51.540;5.854;2024-01-15T04:04:07;1.32;4.48;3.28
45312;PMS7003;68267;51.540;5.854;2024-01-15T04:17:27;6.85;5.79;3.61
45312;PMS7003;68267;51.540;5.854;2024-01-15T04:30:46;7.45;6.66;4.7
45312;PMS7003;68267;51.540;5.854;2024-01-15T04:44:06;3.6;6.55;4.37
45312;PMS7003;68267;51.540;5.854;2024-01-15T04:57:26;2.28;5.35;3.5
45312;PMS7003;68267;51.540;5.854;2024-01-15T05:10:45;5.77;4.59;3.28
45312;PMS7003;68267;51.540;5.854;2024-01-15T05:24:05;0.36;3.61;2.08
45312;PMS7003;68267;51.540;5.854;2024-01-15T05:37:25;0.01;2.52;1.75
45312;PMS7003;68267;51.540;5.854;2024-01-15T05:50:44;50.18;2.41;1.64
45312;PMS7003;68267;51.540;5.854;2024-01-15T06:04:04;0.01;2.41;1.64
45312;PMS7003;68267;51.540;5.854;2024-01-15T06:17:24;0.01;2.52;2.19
45312;PMS7003;68267;51.540;5.854;2024-01-15T06:30:43;0.12;3.39;2.41
45312;PMS7003;68267;51.540;5.854;2024-01-15T06:44:03;11.17;4.91;3.71
45312;PMS7003;68267;51.540;5.854;2024-01-15T06:57:22;2.64;5.68;5.02
45312;PMS7003;68267;51.540;5.854;2024-01-15T07:10:42;3.6;6.55;5.46
45312;PMS7003;68267;51.540;5.854;2024-01-15T07:24:02;4.33;7.2;6.33
45312;PMS7003;68267;51.540;5.854;2024-01-15T07:37:21;3.0;6.0;5.13
45312;PMS7003;68267;51.540;5.854;2024-01-15T07:50:41;2.52;5.57;5.24
45312;PMS7003;68267;51.540;5.854;2024-01-15T08:04:01;1.2;4.37;3.93
45312;PMS7003;68267;51.540;5.854;2024-01-15T08:17:20;0.96;4.15;3.71
45312;PMS7003;68267;51.540;5.854;2024-01-15T08:30:40;4.21;7.09;6.66
45312;PMS7003;68267;51.540;5.854;2024-01-15T08:44:00;5.05;7.86;7.75
45312;PMS7003;68267;51.540;5.854;2024-01-15T08:57:19;8.77;9.93;9.71
45312;PMS7003;68267;51.540;5.854;2024-01-15T09:10:39;10.45;12.76;11.67
45312;PMS7003;68267;51.540;5.854;2024-01-15T09:24:01;11.29;13.53;12.76
45312;PMS7003;68267;51.540;5.854;2024-01-15T09:37:21;12.13;14.29;13.85
45312;PMS7003;68267;51.540;5.854;2024-01-15T09:50:40;12.13;14.29;13.63
45312;PMS7003;68267;51.540;5.854;2024-01-15T10:04:00;11.65;13.85;12.76
45312;PMS7003;68267;51.540;5.854;2024-01-15T10:17:20;8.77;9.6;8.73
45312;PMS7003;68267;51.540;5.854;2024-01-15T10:30:39;1.44;4.59;3.71
45312;PMS7003;68267;51.540;5.854;2024-01-15T10:43:59;7.33;3.71;2.41
45312;PMS7003;68267;51.540;5.854;2024-01-15T10:57:19;0.84;4.04;3.71
45312;PMS7003;68267;51.540;5.854;2024-01-15T11:10:38;6.25;6.33;5.46
45312;PMS7003;68267;51.540;5.854;2024-01-15T11:23:58;3.85;6.77;6.11
45312;PMS7003;68267;51.540;5.854;2024-01-15T11:37:18;3.97;6.88;6.0
45312;PMS7003;68267;51.540;5.854;2024-01-15T11:50:37;3.97;6.88;5.68
45312;PMS7003;68267;51.540;5.854;2024-01-15T12:03:57;6.97;7.64;6.44
45312;PMS7003;68267;51.540;5.854;2024-01-15T12:17:17;4.81;4.91;4.59
45312;PMS7003;68267;51.540;5.854;2024-01-15T12:30:36;1.68;4.8;4.37
45312;PMS7003;68267;51.540;5.854;2024-01-15T12:43:56;6.97;6.55;6.0
45312;PMS7003;68267;51.540;5.854;2024-01-15T12:57:16;1.8;4.91;4.37
45312;PMS7003;68267;51.540;5.854;2024-01-15T13:10:38;4.93;7.75;6.99
45312;PMS7003;68267;51.540;5.854;2024-01-15T13:23:57;6.73;7.86;7.64
45312;PMS7003;68267;51.540;5.854;2024-01-15T13:37:17;6.13;8.84;8.4
45312;PMS7003;68267;51.540;5.854;2024-01-15T13:50:37;7.33;9.93;9.06
45312;PMS7003;68267;51.540;5.854;2024-01-15T14:03:56;9.25;11.67;11.13
45312;PMS7003;68267;51.540;5.854;2024-01-15T14:17:16;5.77;8.51;8.08
45312;PMS7003;68267;51.540;5.854;2024-01-15T14:30:36;5.29;8.08;7.2
45312;PMS7003;68267;51.540;5.854;2024-01-15T14:43:55;5.41;8.18;6.99
45312;PMS7003;68267;51.540;5.854;2024-01-15T14:57:15;5.89;8.62;8.4
45312;PMS7003;68267;51.540;5.854;2024-01-15T15:10:35;5.89;8.62;7.53
45312;PMS7003;68267;51.540;5.854;2024-01-15T15:23:54;12.01;9.82;9.06
45312;PMS7003;68267;51.540;5.854;2024-01-15T15:37:14;7.33;9.93;9.06
45312;PMS7003;68267;51.540;5.854;2024-01-15T15:50:34;5.41;8.18;6.77
45312;PMS7003;68267;51.540;5.854;2024-01-15T16:03:56;9.73;5.68;4.91
45312;PMS7003;68267;51.540;5.854;2024-01-15T16:17:15;6.49;4.7;3.39
45312;PMS7003;68267;51.540;5.854;2024-01-15T16:30:35;6.85;3.06;1.97
45312;PMS7003;68267;51.540;5.854;2024-01-15T16:43:57;6.85;3.28;1.75
45312;PMS7003;68267;51.540;5.854;2024-01-15T16:57:17;0.72;3.93;2.08
45312;PMS7003;68267;51.540;5.854;2024-01-15T17:10:37;6.13;5.02;3.61
45312;PMS7003;68267;51.540;5.854;2024-01-15T17:23:56;2.76;5.79;3.71
45312;PMS7003;68267;51.540;5.854;2024-01-15T17:37:16;3.0;4.7;3.5
45312;PMS7003;68267;51.540;5.854;2024-01-15T17:50:35;3.36;5.24;3.39
45312;PMS7003;68267;51.540;5.854;2024-01-15T18:03:55;2.28;5.35;3.5
45312;PMS7003;68267;51.540;5.854;2024-01-15T18:17:15;13.57;4.37;3.28
45312;PMS7003;68267;51.540;5.854;2024-01-15T18:30:35;1.8;4.91;3.71
45312;PMS7003;68267;51.540;5.854;2024-01-15T18:43:54;3.36;6.33;3.93
45312;PMS7003;68267;51.540;5.854;2024-01-15T18:57:14;13.81;8.08;6.88
45312;PMS7003;68267;51.540;5.854;2024-01-15T19:10:33;8.41;10.91;9.71
45312;PMS7003;68267;51.540;5.854;2024-01-15T19:23:53;8.89;8.73;8.08
45312;PMS7003;68267;51.540;5.854;2024-01-15T19:37:13;11.29;13.53;12.11
45312;PMS7003;68267;51.540;5.854;2024-01-15T19:50:32;14.89;12.44;10.47
45312;PMS7003;68267;51.540;5.854;2024-01-15T20:03:52;9.97;10.69;7.2
45312;PMS7003;68267;51.540;5.854;2024-01-15T20:17:12;8.77;7.97;6.33
45312;PMS7003;68267;51.540;5.854;2024-01-15T20:30:31;8.65;8.18;6.66
45312;PMS7003;68267;51.540;5.854;2024-01-15T20:43:51;12.49;13.09;11.02
45312;PMS7003;68267;51.540;5.854;2024-01-15T20:57:11;18.85;16.14;13.74
45312;PMS7003;68267;51.540;5.854;2024-01-15T21:10:30;11.77;12.87;11.89
45312;PMS7003;68267;51.540;5.854;2024-01-15T21:23:50;12.49;14.62;13.09
45312;PMS7003;68267;51.540;5.854;2024-01-15T21:37:10;15.37;14.83;13.09
45312;PMS7003;68267;51.540;5.854;2024-01-15T21:50:29;13.21;13.2;11.56
45312;PMS7003;68267;51.540;5.854;2024-01-15T22:03:49;11.05;10.8;9.82
45312;PMS7003;68267;51.540;5.854;2024-01-15T22:17:08;8.41;10.91;9.82
45312;PMS7003;68267;51.540;5.854;2024-01-15T22:30:28;6.97;9.6;8.18
45312;PMS7003;68267;51.540;5.854;2024-01-15T22:43:48;5.41;8.18;6.99
45312;PMS7003;68267;51.540;5.854;2024-01-15T22:57:07;8.89;8.62;7.31
45312;PMS7003;68267;51.540;5.854;2024-01-15T23:10:27;7.69;10.26;8.73
45312;PMS7003;68267;51.540;5.854;2024-01-15T23:23:47;7.81;10.36;8.84
45312;PMS7003;68267;51.540;5.854;2024-01-15T23:37:06;10.69;10.36;9.06
45312;PMS7003;68267;51.540;5.854;2024-01-15T23:50:26;10.69;10.8;9.17
